Time;durP1;ratioP1;P1;durP2;ratioP2;P2;SDS_P1;SDS_P2;PMS_P1;PMS_P2;Temp;Humidity;BMP_temperature;BMP_pressure;BME280_temperature;BME280_humidity;BME280_pressure;Samples;Min_cycle;Max_cycle;Signal;HPM_P1;HPM_P2
2022/09/01 00:02:07;;;;;;;25.20;21.90;;;15.20;99.90;;;;;;5090842;28;20287;-87
2022/09/01 00:04:37;;;;;;;24.75;22.15;;;15.10;99.90;;;;;;5092544;28;20211;-87
2022/09/01 00:07:05;;;;;;;24.83;22.13;;;15.10;99.90;;;;;;5095408;28;20228;-88
2022/09/01 00:09:34;;;;;;;24.80;21.60;;;15.10;99.90;;;;;;5092293;28;20571;-88
2022/09/01 00:12:01;;;;;;;24.83;22.08;;;15.10;99.90;;;;;;5092482;28;20678;-88
2022/09/01 00:14:33;;;;;;;25.65;22.15;;;15.10;99.90;;;;;;5092632;28;20200;-87
2022/09/01 00:17:10;;;;;;;26.85;22.90;;;15.00;99.90;;;;;;5092678;28;20640;-87
2022/09/01 00:19:38;;;;;;;26.20;22.67;;;15.10;99.90;;;;;;5090089;28;20223;-87
2022/09/01 00:22:06;;;;;;;28.58;23.77;;;15.20;99.90;;;;;;5082189;28;20205;-87
2022/09/01 00:24:35;;;;;;;26.83;23.05;;;15.30;99.90;;;;;;5093699;28;20204;-88
2022/09/01 00:27:03;;;;;;;26.13;23.42;;;15.30;99.90;;;;;;5094723;28;20203;-87
2022/09/01 00:29:30;;;;;;;28.33;23.83;;;15.20;99.90;;;;;;5093646;28;20207;-87
2022/09/01 00:31:57;;;;;;;28.40;25.30;;;15.20;99.90;;;;;;5096406;28;20232;-87
2022/09/01 00:34:26;;;;;;;26.75;23.77;;;15.10;99.90;;;;;;5095073;28;20204;-87
2022/09/01 00:36:53;;;;;;;26.45;23.48;;;15.10;99.90;;;;;;5096504;28;20204;-87
2022/09/01 00:39:20;;;;;;;31.08;25.17;;;15.10;99.90;;;;;;5093308;28;20208;-88
2022/09/01 00:41:52;;;;;;;28.17;25.00;;;15.00;99.90;;;;;;5095575;28;20549;-88
2022/09/01 00:44:22;;;;;;;29.05;25.10;;;15.10;99.90;;;;;;5092466;28;20307;-87
2022/09/01 00:46:51;;;;;;;30.13;25.27;;;15.00;99.90;;;;;;5092820;28;20207;-87
2022/09/01 00:49:22;;;;;;;29.73;25.70;;;15.00;99.90;;;;;;5087549;28;20656;-86
2022/09/01 00:51:54;;;;;;;31.80;25.88;;;15.00;99.90;;;;;;5087783;28;20212;-87
2022/09/01 00:54:24;;;;;;;28.77;24.13;;;15.00;99.90;;;;;;5091181;28;20189;-87
2022/09/01 00:56:53;;;;;;;31.45;25.45;;;14.90;99.90;;;;;;5094081;28;20687;-87
2022/09/01 00:59:22;;;;;;;29.60;25.70;;;15.00;99.90;;;;;;5099502;28;20193;-87
2022/09/01 01:01:49;;;;;;;30.50;24.70;;;14.90;99.90;;;;;;5096573;28;20212;-87
2022/09/01 01:04:16;;;;;;;27.17;23.98;;;14.90;99.90;;;;;;5105252;28;20647;-87
2022/09/01 01:06:48;;;;;;;31.27;24.73;;;15.00;99.90;;;;;;5097032;28;20200;-87
2022/09/01 01:09:29;;;;;;;30.13;25.45;;;15.00;99.90;;;;;;5095167;28;20218;-87
2022/09/01 01:11:58;;;;;;;31.63;26.45;;;14.90;99.90;;;;;;5103043;28;20197;-87
2022/09/01 01:14:30;;;;;;;29.55;24.80;;;14.90;99.90;;;;;;5093448;28;20193;-88
2022/09/01 01:16:57;;;;;;;26.67;22.63;;;14.90;99.90;;;;;;5106897;28;20224;-87
2022/09/01 01:25:11;;;;;;;31.85;26.15;;;15.00;99.90;;;;;;5092232;28;20216;-87
2022/09/01 01:27:41;;;;;;;30.27;25.88;;;15.00;99.90;;;;;;5093238;28;20719;-87
2022/09/01 01:30:09;;;;;;;30.92;26.17;;;15.00;99.90;;;;;;5092333;28;20664;-87
2022/09/01 01:32:36;;;;;;;28.60;25.02;;;14.90;99.90;;;;;;5092911;28;20686;-88
2022/09/01 01:35:05;;;;;;;27.15;24.00;;;15.00;99.90;;;;;;5092319;28;20247;-87
2022/09/01 01:37:34;;;;;;;31.67;26.20;;;15.00;99.90;;;;;;5092738;28;20295;-87
2022/09/01 01:40:01;;;;;;;31.05;25.27;;;15.00;99.90;;;;;;5092504;28;20204;-88
2022/09/01 01:42:32;;;;;;;29.30;24.45;;;15.00;99.90;;;;;;5093107;28;20204;-88
2022/09/01 01:44:59;;;;;;;28.40;23.98;;;15.00;99.90;;;;;;5092350;28;20702;-87
2022/09/01 01:47:25;;;;;;;27.65;24.05;;;15.00;99.90;;;;;;5084835;28;20256;-87
2022/09/01 01:49:53;;;;;;;27.95;23.73;;;15.00;99.90;;;;;;5088105;28;20205;-88
2022/09/01 01:52:20;;;;;;;27.38;23.33;;;15.10;99.90;;;;;;5089696;28;20686;-87
2022/09/01 01:54:47;;;;;;;28.20;22.80;;;15.20;99.90;;;;;;5090489;28;20200;-88
2022/09/01 01:57:16;;;;;;;25.73;22.77;;;15.20;99.90;;;;;;5092892;28;20208;-87
2022/09/01 01:59:52;;;;;;;24.55;21.90;;;15.20;99.90;;;;;;5092688;28;20254;-87
2022/09/01 02:02:20;;;;;;;24.10;21.08;;;15.10;99.90;;;;;;5093318;28;20270;-88
2022/09/01 02:04:50;;;;;;;23.60;21.20;;;15.00;99.90;;;;;;5092742;28;20211;-87
2022/09/01 02:07:17;;;;;;;23.88;21.33;;;15.00;99.90;;;;;;5092658;28;20200;-87
2022/09/01 02:09:50;;;;;;;23.77;21.30;;;15.00;99.90;;;;;;5092009;28;20189;-87
2022/09/01 02:12:18;;;;;;;23.02;20.60;;;15.00;99.90;;;;;;5086538;28;20207;-87
2022/09/01 02:14:45;;;;;;;23.58;20.17;;;14.90;99.90;;;;;;5091256;28;20196;-87
2022/09/01 02:17:13;;;;;;;22.67;20.23;;;14.80;99.90;;;;;;5090495;28;20227;-87
2022/09/01 02:19:42;;;;;;;23.98;21.33;;;14.90;99.90;;;;;;5088108;28;20207;-87
2022/09/01 02:22:14;;;;;;;23.75;20.25;;;14.90;99.90;;;;;;5089137;28;20683;-87
2022/09/01 02:24:45;;;;;;;22.00;19.65;;;14.80;99.90;;;;;;5091079;28;20968;-87
2022/09/01 02:27:14;;;;;;;23.95;20.70;;;14.80;99.90;;;;;;5086259;28;20226;-87
2022/09/01 02:29:41;;;;;;;22.45;20.05;;;14.80;99.90;;;;;;5090458;28;20712;-88
2022/09/01 02:32:08;;;;;;;23.00;20.42;;;14.70;99.90;;;;;;5092836;28;20204;-87
2022/09/01 02:34:38;;;;;;;23.90;20.67;;;14.70;99.90;;;;;;5091033;28;20200;-87
2022/09/01 02:37:05;;;;;;;22.63;20.20;;;14.60;99.90;;;;;;5089584;28;20213;-87
2022/09/01 02:39:32;;;;;;;22.83;20.40;;;14.60;99.90;;;;;;5085048;28;20539;-87
2022/09/01 02:42:00;;;;;;;24.48;21.83;;;14.50;99.90;;;;;;5088620;28;20208;-87
2022/09/01 02:44:28;;;;;;;27.13;21.77;;;14.50;99.90;;;;;;5091779;28;20224;-88
2022/09/01 02:46:55;;;;;;;25.90;23.15;;;14.40;99.90;;;;;;5091432;28;20201;-87
2022/09/01 02:49:27;;;;;;;26.40;22.88;;;14.40;99.90;;;;;;5072530;28;20212;-87
2022/09/01 02:52:00;;;;;;;24.73;22.13;;;14.30;99.90;;;;;;5087777;28;20208;-87
2022/09/01 02:54:28;;;;;;;25.58;22.58;;;14.30;99.90;;;;;;5092024;28;22070;-87
2022/09/01 02:56:57;;;;;;;26.65;22.73;;;14.30;99.90;;;;;;5091224;28;20691;-87
2022/09/01 02:59:29;;;;;;;28.00;22.75;;;14.20;99.90;;;;;;5091069;28;20204;-87
2022/09/01 03:01:56;;;;;;;27.80;23.15;;;14.20;99.90;;;;;;5092333;28;20683;-87
2022/09/01 03:04:23;;;;;;;25.70;22.48;;;14.30;99.90;;;;;;5091090;28;20261;-88
2022/09/01 03:06:53;;;;;;;30.48;24.67;;;14.30;99.90;;;;;;5090239;28;20279;-87
2022/09/01 03:09:22;;;;;;;29.98;24.95;;;14.20;99.90;;;;;;5090463;28;20195;-87
2022/09/01 03:11:52;;;;;;;30.98;25.33;;;14.10;99.90;;;;;;5090531;28;20201;-87
2022/09/01 03:14:23;;;;;;;30.63;25.50;;;14.10;99.90;;;;;;5091995;28;20636;-87
2022/09/01 03:16:50;;;;;;;30.65;25.38;;;14.10;99.90;;;;;;5090241;28;20231;-88
2022/09/01 03:19:19;;;;;;;27.30;23.55;;;14.10;99.90;;;;;;5090936;28;20201;-88
2022/09/01 03:21:47;;;;;;;25.58;22.88;;;14.10;99.90;;;;;;5090064;28;20209;-87
2022/09/01 03:24:16;;;;;;;26.20;22.38;;;14.20;99.90;;;;;;5080655;28;20197;-87
2022/09/01 03:26:46;;;;;;;24.20;21.50;;;14.30;99.90;;;;;;5090536;28;20243;-87
2022/09/01 03:29:14;;;;;;;27.73;22.15;;;14.40;99.90;;;;;;5090513;28;20647;-87
2022/09/01 03:31:41;;;;;;;26.02;23.08;;;14.30;99.90;;;;;;5090843;28;20200;-87
2022/09/01 03:34:10;;;;;;;29.33;23.13;;;14.40;99.90;;;;;;5090890;28;20280;-87
2022/09/01 03:36:37;;;;;;;26.85;23.92;;;14.30;99.90;;;;;;5084562;28;20235;-87
2022/09/01 03:39:04;;;;;;;26.02;22.73;;;14.20;99.90;;;;;;5093561;28;20715;-87
2022/09/01 03:41:31;;;;;;;27.48;22.73;;;14.20;99.90;;;;;;5089582;28;20682;-87
2022/09/01 03:43:59;;;;;;;26.02;23.08;;;14.20;99.90;;;;;;5093316;28;20216;-87
2022/09/01 03:46:29;;;;;;;25.75;22.30;;;14.20;99.90;;;;;;5095940;28;20295;-88
2022/09/01 03:49:00;;;;;;;28.88;23.90;;;14.30;99.90;;;;;;5088398;28;20200;-87
2022/09/01 03:51:29;;;;;;;27.38;23.75;;;14.30;99.90;;;;;;5093383;28;20213;-87
2022/09/01 03:53:57;;;;;;;25.13;22.10;;;14.20;99.90;;;;;;5093842;28;20209;-87
2022/09/01 03:56:26;;;;;;;24.27;21.77;;;14.20;99.90;;;;;;5094365;28;20228;-87
2022/09/01 03:58:55;;;;;;;24.67;21.92;;;14.30;99.90;;;;;;5091209;28;20652;-87
2022/09/01 04:01:23;;;;;;;26.98;22.25;;;14.30;99.90;;;;;;5094155;28;20229;-87
2022/09/01 04:03:51;;;;;;;24.52;21.65;;;14.20;99.90;;;;;;5083463;28;20197;-87
2022/09/01 04:06:22;;;;;;;25.88;22.95;;;14.20;99.90;;;;;;5090749;28;20253;-88
2022/09/01 04:08:51;;;;;;;24.60;20.75;;;14.20;99.90;;;;;;5093108;28;20228;-87
2022/09/01 04:11:22;;;;;;;24.70;21.90;;;14.10;99.90;;;;;;5088260;28;20203;-87
2022/09/01 04:13:49;;;;;;;25.13;20.92;;;14.20;99.90;;;;;;5088859;28;20208;-87
2022/09/01 04:19:14;;;;;;;25.20;22.10;;;14.30;99.90;;;;;;5092797;28;20203;-87
2022/09/01 04:21:42;;;;;;;25.27;21.83;;;14.30;99.90;;;;;;5089844;28;20206;-88
2022/09/01 04:24:11;;;;;;;22.48;20.08;;;14.10;99.90;;;;;;5096035;28;20196;-87
2022/09/01 04:26:39;;;;;;;25.92;21.23;;;14.20;99.90;;;;;;5094926;28;20192;-87
2022/09/01 04:29:09;;;;;;;25.25;22.55;;;14.20;99.90;;;;;;5091805;28;20647;-87
2022/09/01 04:31:38;;;;;;;26.02;21.27;;;14.10;99.90;;;;;;5095380;28;20283;-87
2022/09/01 04:34:12;;;;;;;32.38;22.27;;;14.10;99.90;;;;;;5092741;28;20224;-87
2022/09/01 04:36:40;;;;;;;26.45;22.73;;;14.00;99.90;;;;;;5094243;28;20308;-87
2022/09/01 04:39:09;;;;;;;26.70;22.60;;;13.90;99.90;;;;;;5093487;28;20211;-86
2022/09/01 04:41:37;;;;;;;26.20;23.15;;;13.80;99.90;;;;;;5093691;28;20660;-87
2022/09/01 04:44:06;;;;;;;32.00;25.30;;;13.70;99.90;;;;;;5092932;28;20583;-87
2022/09/01 04:46:45;;;;;;;29.70;24.70;;;13.70;99.90;;;;;;5091696;28;20211;-87
2022/09/01 04:49:18;;;;;;;30.08;24.75;;;13.80;99.90;;;;;;5092115;28;20196;-87
2022/09/01 04:51:48;;;;;;;29.90;25.02;;;13.80;99.90;;;;;;5094292;28;20193;-86
2022/09/01 04:54:15;;;;;;;32.05;25.10;;;13.90;99.90;;;;;;5092760;28;20207;-86
2022/09/01 04:56:44;;;;;;;30.63;25.90;;;13.90;99.90;;;;;;5095130;28;20216;-86
2022/09/01 04:59:13;;;;;;;28.20;24.15;;;13.90;99.90;;;;;;5092558;28;20196;-87
2022/09/01 05:01:43;;;;;;;28.00;23.55;;;14.00;99.90;;;;;;5085371;28;20594;-87
2022/09/01 05:04:15;;;;;;;27.52;23.27;;;14.20;99.90;;;;;;5093165;28;20213;-88
2022/09/01 05:06:43;;;;;;;28.10;23.98;;;14.30;99.90;;;;;;5080792;28;20258;-88
2022/09/01 05:09:11;;;;;;;29.27;21.67;;;14.30;99.90;;;;;;5096196;28;20589;-88
2022/09/01 05:11:40;;;;;;;24.35;21.70;;;14.30;99.90;;;;;;5087018;28;20224;-87
2022/09/01 05:14:07;;;;;;;25.23;22.40;;;14.40;99.90;;;;;;5092897;28;20672;-88
2022/09/01 05:16:36;;;;;;;20.65;18.45;;;14.60;99.90;;;;;;5086913;28;20224;-88
2022/09/01 05:19:04;;;;;;;19.65;17.55;;;15.00;99.90;;;;;;5095430;28;20250;-87
2022/09/01 05:21:32;;;;;;;24.60;21.00;;;15.60;99.90;;;;;;5094929;28;20291;-87
2022/09/01 05:24:02;;;;;;;19.60;17.30;;;15.70;99.90;;;;;;5093870;28;20196;-87
2022/09/01 05:26:32;;;;;;;20.65;18.45;;;16.00;99.90;;;;;;5095902;28;20207;-88
2022/09/01 05:29:01;;;;;;;22.48;20.13;;;16.00;98.90;;;;;;5090796;28;20287;-87
2022/09/01 05:31:36;;;;;;;23.33;20.48;;;15.90;97.80;;;;;;5093872;28;20212;-87
2022/09/01 05:34:04;;;;;;;22.65;19.92;;;15.50;98.10;;;;;;5088772;28;20203;-87
2022/09/01 05:36:32;;;;;;;20.80;18.60;;;15.30;99.10;;;;;;5091797;28;20722;-87
2022/09/01 05:39:00;;;;;;;21.30;18.83;;;15.30;99.40;;;;;;5085096;28;20201;-88
2022/09/01 05:41:27;;;;;;;20.35;18.23;;;15.30;99.00;;;;;;5091769;28;20208;-88
2022/09/01 05:44:06;;;;;;;19.88;17.80;;;15.30;99.90;;;;;;5093238;28;20572;-87
2022/09/01 05:46:35;;;;;;;19.38;17.27;;;15.20;99.30;;;;;;5092418;28;20262;-87
2022/09/01 05:49:02;;;;;;;20.98;18.00;;;15.50;99.00;;;;;;5091579;28;20205;-88
2022/09/01 05:51:34;;;;;;;19.70;17.60;;;15.50;98.40;;;;;;5088449;28;20287;-88
2022/09/01 05:54:01;;;;;;;20.30;16.63;;;15.50;98.10;;;;;;5087775;28;20281;-88
2022/09/01 05:56:31;;;;;;;21.38;16.95;;;15.50;98.40;;;;;;5091186;28;20683;-88
2022/09/01 05:59:01;;;;;;;21.02;17.50;;;15.50;96.70;;;;;;5093833;28;20237;-88
2022/09/01 06:01:32;;;;;;;22.58;17.40;;;15.30;97.00;;;;;;5080078;28;20201;-88
2022/09/01 06:04:02;;;;;;;20.23;16.92;;;15.40;97.40;;;;;;5090799;28;20204;-88
2022/09/01 06:06:36;;;;;;;22.10;16.20;;;15.70;97.10;;;;;;5085328;28;20268;-87
2022/09/01 06:09:04;;;;;;;19.27;16.00;;;15.90;97.30;;;;;;5096845;28;20219;-87
2022/09/01 06:11:31;;;;;;;19.25;15.85;;;16.00;96.30;;;;;;5081224;28;20657;-87
2022/09/01 06:13:59;;;;;;;18.27;15.70;;;16.20;96.80;;;;;;5090696;28;20200;-88
2022/09/01 06:16:27;;;;;;;20.20;16.13;;;16.20;95.40;;;;;;5090565;28;20206;-88
2022/09/01 06:18:56;;;;;;;20.38;16.42;;;16.20;95.50;;;;;;5085857;28;20342;-87
2022/09/01 06:21:23;;;;;;;20.67;16.05;;;16.20;94.90;;;;;;5086353;28;20293;-88
2022/09/01 06:23:53;;;;;;;20.52;16.23;;;16.20;95.10;;;;;;5092294;28;20288;-87
2022/09/01 06:26:26;;;;;;;19.60;16.40;;;16.40;95.50;;;;;;5089046;28;20197;-87
2022/09/01 06:29:00;;;;;;;17.73;15.15;;;16.50;95.00;;;;;;5096067;28;20224;-87
2022/09/01 06:31:32;;;;;;;18.73;15.88;;;16.40;94.50;;;;;;5092609;28;20223;-86
2022/09/01 06:34:02;;;;;;;18.98;15.20;;;16.30;94.90;;;;;;5091071;28;20197;-86
2022/09/01 06:36:31;;;;;;;20.95;15.95;;;16.40;96.00;;;;;;5093750;28;20566;-86
2022/09/01 06:39:07;;;;;;;17.65;14.57;;;16.60;94.50;;;;;;5093361;28;20223;-88
2022/09/01 06:41:38;;;;;;;19.40;14.82;;;16.50;94.80;;;;;;5096483;28;20196;-88
2022/09/01 06:44:05;;;;;;;17.02;14.35;;;16.60;93.70;;;;;;5090762;28;20307;-87
2022/09/01 06:46:36;;;;;;;16.02;14.32;;;16.70;93.50;;;;;;5092474;28;20553;-87
2022/09/01 06:49:04;;;;;;;17.98;14.25;;;16.70;94.10;;;;;;5087917;28;20526;-86
2022/09/01 06:51:32;;;;;;;15.63;13.45;;;16.70;93.40;;;;;;5091560;28;20235;-87
2022/09/01 06:54:00;;;;;;;17.08;13.93;;;16.60;93.50;;;;;;5087552;28;20672;-87
2022/09/01 06:56:36;;;;;;;17.02;14.15;;;16.60;93.70;;;;;;5081468;28;20635;-86
2022/09/01 06:59:04;;;;;;;15.95;13.48;;;16.10;94.30;;;;;;5089935;28;20261;-86
2022/09/01 07:01:32;;;;;;;15.00;13.40;;;16.30;94.10;;;;;;5090898;28;20228;-86
2022/09/01 07:04:01;;;;;;;14.68;13.18;;;16.20;94.50;;;;;;5090655;28;20204;-86
2022/09/01 07:06:28;;;;;;;13.45;11.60;;;16.40;95.10;;;;;;5089701;28;20206;-86
2022/09/01 07:11:48;;;;;;;13.18;11.82;;;16.60;93.40;;;;;;5086369;28;20248;-86
2022/09/01 07:14:16;;;;;;;13.02;11.73;;;16.60;93.30;;;;;;5088576;28;20192;-87
2022/09/01 07:16:56;;;;;;;13.07;11.82;;;16.50;93.10;;;;;;5082126;28;20207;-87
2022/09/01 07:19:24;;;;;;;12.05;10.82;;;16.50;93.90;;;;;;5090182;28;20204;-87
2022/09/01 07:21:54;;;;;;;12.65;11.35;;;16.40;93.80;;;;;;5089446;28;20208;-87
2022/09/01 07:24:21;;;;;;;12.82;10.68;;;16.60;93.60;;;;;;5087939;28;20235;-87
2022/09/01 07:26:52;;;;;;;11.30;10.20;;;16.50;93.20;;;;;;5087671;28;20200;-87
2022/09/01 07:29:25;;;;;;;11.10;10.02;;;16.50;92.70;;;;;;5082613;28;20189;-87
2022/09/01 07:31:54;;;;;;;11.10;9.68;;;16.60;92.30;;;;;;5086679;28;20287;-87
2022/09/01 07:34:21;;;;;;;11.30;9.30;;;16.90;92.00;;;;;;5089446;28;20288;-87
2022/09/01 07:36:54;;;;;;;9.88;8.88;;;16.90;91.90;;;;;;5084049;28;20216;-87
2022/09/01 07:39:30;;;;;;;10.27;9.18;;;16.90;91.80;;;;;;5089918;28;20212;-87
2022/09/01 07:42:10;;;;;;;9.60;8.70;;;17.10;92.00;;;;;;5085802;28;20663;-86
2022/09/01 07:44:38;;;;;;;10.40;9.23;;;17.10;91.30;;;;;;5087085;28;20258;-87
2022/09/01 07:47:08;;;;;;;10.18;9.07;;;17.10;92.00;;;;;;5088997;28;20285;-87
2022/09/01 07:49:40;;;;;;;9.60;8.60;;;17.10;92.00;;;;;;5090192;28;20283;-87
2022/09/01 07:52:07;;;;;;;10.18;9.05;;;17.10;90.90;;;;;;5087263;28;20216;-87
2022/09/01 07:54:36;;;;;;;10.77;9.68;;;17.10;90.70;;;;;;5088226;28;20223;-86
2022/09/01 07:57:03;;;;;;;9.82;8.95;;;17.10;91.10;;;;;;5088076;28;20240;-87
2022/09/01 07:59:34;;;;;;;9.52;8.68;;;17.20;90.50;;;;;;5083711;28;20201;-87
2022/09/01 08:02:05;;;;;;;10.35;8.77;;;17.30;90.80;;;;;;5085716;28;20240;-87
2022/09/01 08:04:33;;;;;;;9.60;8.60;;;17.40;90.90;;;;;;5078530;28;20782;-88
2022/09/01 08:07:00;;;;;;;8.05;7.35;;;17.60;89.00;;;;;;5081460;28;20205;-87
2022/09/01 08:09:35;;;;;;;8.45;7.55;;;17.90;85.50;;;;;;5066544;28;20197;-88
2022/09/01 08:12:04;;;;;;;9.32;7.95;;;18.10;87.50;;;;;;5088503;28;20207;-87
2022/09/01 08:14:31;;;;;;;8.20;7.40;;;18.40;86.70;;;;;;5090185;28;20949;-87
2022/09/01 08:17:00;;;;;;;8.32;7.55;;;18.50;79.80;;;;;;5048198;28;20212;-87
2022/09/01 08:19:39;;;;;;;8.38;7.57;;;18.60;79.80;;;;;;5085905;28;20205;-88
2022/09/01 08:22:07;;;;;;;8.75;7.38;;;18.80;77.90;;;;;;5089866;28;20654;-87
2022/09/01 08:24:39;;;;;;;8.10;7.30;;;18.70;79.90;;;;;;5089967;28;20200;-88
2022/09/01 08:27:07;;;;;;;9.48;7.90;;;18.70;76.60;;;;;;5093328;28;20192;-87
2022/09/01 08:29:39;;;;;;;7.93;7.22;;;18.80;75.90;;;;;;5101374;28;20651;-87
2022/09/01 08:32:07;;;;;;;8.63;7.82;;;18.90;75.60;;;;;;5098167;28;20200;-88
2022/09/01 08:34:36;;;;;;;8.30;7.50;;;18.90;73.70;;;;;;5096219;28;20632;-89
2022/09/01 08:37:09;;;;;;;8.50;7.70;;;18.90;75.60;;;;;;5105175;28;20199;-87
2022/09/01 08:39:36;;;;;;;7.07;6.43;;;19.00;68.70;;;;;;5094274;28;20193;-89
2022/09/01 08:42:08;;;;;;;7.18;6.47;;;19.10;69.00;;;;;;5092938;28;20196;-89
2022/09/01 08:44:44;;;;;;;7.20;6.50;;;19.00;71.40;;;;;;5096115;28;20212;-90
2022/09/01 08:47:17;;;;;;;8.68;6.68;;;19.00;70.50;;;;;;5092127;28;20204;-89
2022/09/01 08:49:46;;;;;;;7.40;6.70;;;19.10;68.70;;;;;;5090606;28;20207;-87
2022/09/01 08:52:21;;;;;;;7.38;6.68;;;19.00;72.80;;;;;;5092007;28;20204;-88
2022/09/01 08:54:50;;;;;;;6.68;6.07;;;19.20;69.00;;;;;;5090132;28;20267;-88
2022/09/01 08:57:21;;;;;;;7.80;7.10;;;18.90;72.00;;;;;;5086860;28;20758;-87
2022/09/01 08:59:48;;;;;;;6.85;6.25;;;19.20;68.90;;;;;;5094425;28;20199;-90
2022/09/01 09:02:35;;;;;;;8.23;6.80;;;19.30;68.90;;;;;;5083543;28;20322;-90
2022/09/01 09:05:06;;;;;;;7.15;5.82;;;19.40;69.30;;;;;;5091218;28;20300;-89
2022/09/01 09:07:48;;;;;;;6.78;6.10;;;19.70;64.50;;;;;;5075214;28;20234;-89
2022/09/01 09:10:19;;;;;;;6.75;6.15;;;19.90;60.10;;;;;;5089385;28;20303;-90
2022/09/01 09:13:00;;;;;;;10.40;6.60;;;20.00;55.90;;;;;;5079868;28;20204;-91
2022/09/01 09:15:36;;;;;;;7.25;6.55;;;20.20;54.40;;;;;;5088413;28;20211;-89
2022/09/01 09:18:16;;;;;;;7.07;6.38;;;20.10;56.00;;;;;;5089641;28;20239;-91
2022/09/01 09:20:46;;;;;;;7.22;6.57;;;20.20;56.10;;;;;;5086247;28;20724;-89
2022/09/01 09:23:23;;;;;;;6.47;5.88;;;20.50;53.00;;;;;;5089269;28;20197;-88
2022/09/01 09:25:50;;;;;;;7.15;6.45;;;20.60;47.70;;;;;;5092698;28;20659;-89
2022/09/01 09:28:41;;;;;;;7.47;5.88;;;20.90;47.10;;;;;;5086709;28;20208;-87
2022/09/01 09:31:28;;;;;;;6.28;5.68;;;21.00;46.60;;;;;;5092566;28;20291;-87
2022/09/01 09:33:57;;;;;;;6.20;5.60;;;21.20;43.20;;;;;;5098153;28;20635;-87
2022/09/01 09:36:37;;;;;;;5.78;5.38;;;21.20;42.50;;;;;;5095415;28;20213;-85
2022/09/01 09:39:44;;;;;;;6.20;5.70;;;20.90;41.10;;;;;;5091584;28;20201;-86
2022/09/01 09:42:13;;;;;;;5.90;5.40;;;20.70;42.60;;;;;;5093350;28;20210;-86
2022/09/01 09:44:51;;;;;;;6.30;5.80;;;20.70;40.60;;;;;;5094454;28;20339;-86
2022/09/01 09:47:50;;;;;;;6.32;5.72;;;20.60;43.80;;;;;;5095585;28;20676;-86
2022/09/01 09:50:23;;;;;;;6.53;5.93;;;20.30;47.60;;;;;;5098233;28;20205;-87
2022/09/01 09:52:53;;;;;;;8.02;5.93;;;20.60;45.00;;;;;;5093575;28;20562;-85
2022/09/01 09:55:27;;;;;;;6.22;5.72;;;20.80;41.70;;;;;;5095681;28;20280;-87
2022/09/01 09:57:58;;;;;;;5.20;4.70;;;20.80;42.30;;;;;;5095447;28;20216;-87
2022/09/01 10:00:27;;;;;;;5.45;4.95;;;21.00;39.30;;;;;;5093392;28;20205;-87
2022/09/01 10:03:00;;;;;;;4.95;4.22;;;21.40;36.50;;;;;;5086866;28;20193;-85
2022/09/01 10:05:36;;;;;;;4.88;4.47;;;22.50;31.30;;;;;;5107535;28;20205;-85
2022/09/01 10:08:05;;;;;;;5.50;4.20;;;23.30;28.70;;;;;;5092463;28;20196;-84
2022/09/01 10:10:39;;;;;;;5.20;4.78;;;24.70;24.20;;;;;;5096435;28;20507;-89
2022/09/01 10:13:10;;;;;;;5.95;5.45;;;25.70;21.10;;;;;;5092967;28;20219;-84
2022/09/01 10:15:36;;;;;;;5.55;5.15;;;26.60;18.50;;;;;;5089133;28;20200;-86
2022/09/01 10:18:07;;;;;;;5.78;5.28;;;26.30;19.20;;;;;;5088712;28;20234;-88
2022/09/01 10:20:54;;;;;;;6.22;4.97;;;25.80;19.70;;;;;;5090716;28;20741;-85
2022/09/01 10:23:21;;;;;;;5.57;5.07;;;25.80;18.10;;;;;;5086285;28;20545;-86
2022/09/01 10:25:50;;;;;;;5.63;5.13;;;25.00;20.80;;;;;;5095031;28;20208;-87
2022/09/01 10:28:22;;;;;;;8.82;5.05;;;24.20;21.90;;;;;;5101180;28;20195;-85
2022/09/01 10:30:53;;;;;;;4.95;4.45;;;24.10;22.40;;;;;;5092012;28;20282;-85
2022/09/01 10:33:22;;;;;;;5.10;4.70;;;24.50;23.00;;;;;;5097820;28;20548;-84
2022/09/01 10:35:53;;;;;;;6.30;5.07;;;24.80;21.10;;;;;;5095353;28;20199;-85
2022/09/01 10:38:22;;;;;;;5.47;4.97;;;24.50;25.60;;;;;;5095800;28;20227;-85
2022/09/01 10:41:05;;;;;;;6.10;5.53;;;24.60;24.10;;;;;;5094756;28;20251;-87
2022/09/01 10:43:39;;;;;;;5.35;4.95;;;24.70;21.20;;;;;;5092741;28;20706;-85
2022/09/01 10:46:45;;;;;;;5.95;5.35;;;24.50;22.50;;;;;;5089183;28;20223;-85
2022/09/01 10:49:56;;;;;;;5.38;4.75;;;23.60;24.20;;;;;;5102912;28;20199;-86
2022/09/01 10:52:57;;;;;;;4.70;4.25;;;23.50;24.40;;;;;;5100762;28;20200;-87
2022/09/01 10:55:46;;;;;;;4.97;4.40;;;24.20;22.00;;;;;;5092366;28;20204;-87
2022/09/01 10:58:39;;;;;;;8.45;3.88;;;24.80;21.90;;;;;;5089868;28;20249;-86
2022/09/01 11:01:06;;;;;;;6.05;3.97;;;25.30;20.70;;;;;;5088958;28;20691;-87
2022/09/01 11:03:50;;;;;;;3.95;3.17;;;25.60;18.90;;;;;;5087033;28;20203;-87
2022/09/01 11:07:01;;;;;;;3.85;3.40;;;25.60;17.60;;;;;;5094086;28;20196;-86
2022/09/01 11:09:38;;;;;;;3.50;3.20;;;25.50;18.30;;;;;;5088701;28;20714;-84
2022/09/01 11:12:43;;;;;;;3.72;3.42;;;24.70;21.10;;;;;;5094025;28;20194;-83
2022/09/01 11:15:34;;;;;;;4.18;3.08;;;24.20;21.70;;;;;;5099609;28;20207;-86
2022/09/01 11:18:02;;;;;;;4.20;3.20;;;23.80;23.40;;;;;;5104958;28;20220;-86
2022/09/01 11:21:14;;;;;;;3.17;2.88;;;23.60;23.20;;;;;;5101569;28;20197;-86
2022/09/01 11:23:41;;;;;;;3.35;3.05;;;23.70;22.90;;;;;;5101400;28;20204;-89
2022/09/01 11:26:47;;;;;;;3.85;3.20;;;23.20;22.90;;;;;;5100703;28;20196;-86
2022/09/01 11:29:47;;;;;;;4.47;2.90;;;23.10;23.50;;;;;;5098073;28;20253;-86
2022/09/01 11:32:15;;;;;;;3.95;2.90;;;22.90;24.50;;;;;;5085952;28;20200;-86
2022/09/01 11:34:45;;;;;;;3.15;2.85;;;22.60;25.00;;;;;;5096856;28;20204;-87
2022/09/01 11:37:15;;;;;;;3.45;2.80;;;22.20;26.50;;;;;;5099148;28;20210;-88
2022/09/01 11:39:54;;;;;;;2.80;2.60;;;21.80;26.10;;;;;;5095384;28;20260;-85
2022/09/01 11:42:28;;;;;;;5.10;2.75;;;21.60;28.70;;;;;;5097575;28;20190;-85
2022/09/01 11:45:03;;;;;;;3.13;2.35;;;21.40;26.40;;;;;;5099670;28;20248;-86
2022/09/01 11:48:06;;;;;;;5.05;2.50;;;21.40;26.60;;;;;;5098063;28;20650;-85
2022/09/01 11:50:35;;;;;;;2.88;2.40;;;21.10;29.00;;;;;;5100118;28;20260;-88
2022/09/01 11:53:13;;;;;;;3.60;2.47;;;21.00;32.90;;;;;;5103809;28;20196;-86
2022/09/01 11:56:16;;;;;;;3.78;2.65;;;21.00;28.50;;;;;;5101084;28;20200;-85
2022/09/01 11:58:46;;;;;;;2.70;2.50;;;21.00;29.20;;;;;;5099008;28;20234;-86
2022/09/01 12:01:18;;;;;;;2.58;2.13;;;21.30;27.30;;;;;;5101135;28;20192;-85
2022/09/01 12:03:47;;;;;;;2.83;2.63;;;21.60;26.50;;;;;;5081014;28;20204;-85
2022/09/01 12:06:21;;;;;;;4.47;2.30;;;21.80;27.70;;;;;;5099808;28;20536;-85
2022/09/01 12:08:57;;;;;;;3.33;2.50;;;21.90;26.40;;;;;;5102325;28;20196;-86
2022/09/01 12:11:29;;;;;;;2.65;2.45;;;22.00;25.40;;;;;;5088712;28;20204;-85
2022/09/01 12:14:00;;;;;;;3.25;2.60;;;22.20;25.90;;;;;;5097901;28;20246;-88
2022/09/01 12:16:28;;;;;;;6.18;2.70;;;22.20;26.80;;;;;;5092652;28;20200;-88
2022/09/01 12:18:59;;;;;;;2.78;2.40;;;22.20;24.20;;;;;;5095181;28;20212;-88
2022/09/01 12:21:29;;;;;;;4.70;2.30;;;22.10;26.90;;;;;;5095064;28;20196;-88
2022/09/01 12:24:12;;;;;;;5.13;2.47;;;22.20;26.40;;;;;;5092264;28;20212;-88
2022/09/01 12:26:39;;;;;;;4.15;2.55;;;22.20;23.20;;;;;;5092900;28;20223;-88
2022/09/01 12:29:08;;;;;;;3.38;2.38;;;21.90;25.10;;;;;;5094122;28;20197;-88
2022/09/01 12:31:41;;;;;;;2.88;2.38;;;21.80;26.00;;;;;;5096841;28;20240;-88
2022/09/01 12:34:25;;;;;;;3.28;2.50;;;21.80;26.20;;;;;;5100603;28;20193;-88
2022/09/01 12:37:03;;;;;;;3.38;2.40;;;21.50;26.80;;;;;;5100415;28;20200;-88
2022/09/01 12:39:35;;;;;;;3.50;3.20;;;21.50;28.30;;;;;;5096680;28;20227;-88
2022/09/01 12:42:24;;;;;;;4.15;2.90;;;21.50;28.30;;;;;;5093493;28;20196;-88
2022/09/01 12:44:56;;;;;;;2.90;2.60;;;21.60;28.30;;;;;;5075590;28;20860;-88
2022/09/01 12:47:49;;;;;;;3.08;2.47;;;21.90;27.60;;;;;;5094165;28;20196;-88
2022/09/01 12:50:44;;;;;;;3.30;2.17;;;22.50;26.70;;;;;;5093078;28;20200;-88
2022/09/01 12:53:24;;;;;;;3.42;2.50;;;22.50;23.70;;;;;;5091703;28;20703;-88
2022/09/01 12:56:19;;;;;;;2.45;2.25;;;22.50;25.00;;;;;;5091983;28;20197;-88
2022/09/01 12:59:01;;;;;;;3.65;2.45;;;22.50;25.10;;;;;;5021768;28;20230;-89
2022/09/01 13:01:32;;;;;;;2.78;2.58;;;22.50;25.10;;;;;;5011243;28;20231;-88
2022/09/01 13:04:15;;;;;;;4.80;2.65;;;22.40;25.20;;;;;;5006774;28;20218;-89
2022/09/01 13:06:45;;;;;;;3.03;2.50;;;22.50;24.50;;;;;;5011896;28;20307;-89
2022/09/01 13:09:12;;;;;;;6.13;2.67;;;22.50;23.90;;;;;;5012333;28;20697;-89
2022/09/01 13:11:40;;;;;;;3.60;2.40;;;22.40;24.70;;;;;;5009674;28;20291;-90
2022/09/01 13:14:07;;;;;;;4.35;2.72;;;22.20;25.40;;;;;;5002429;28;20247;-89